createdAt,value
2023-05-11T00:00:08.424Z,13.30
2023-05-11T00:05:14.021Z,12.35
2023-05-11T00:10:18.278Z,12.50
2023-05-11T00:15:24.128Z,13.25
2023-05-11T00:20:28.234Z,13.05
2023-05-11T00:25:32.295Z,13.00
2023-05-11T00:30:37.687Z,12.50
2023-05-11T00:35:42.952Z,12.98
2023-05-11T00:40:47.181Z,12.70
2023-05-11T00:45:53.584Z,12.77
2023-05-11T00:50:57.776Z,12.43
2023-05-11T00:56:02.635Z,12.52
2023-05-11T01:01:08.336Z,12.55
2023-05-11T01:06:21.722Z,13.73
2023-05-11T01:11:37.041Z,12.55
2023-05-11T01:16:47.300Z,12.13
2023-05-11T01:21:53.832Z,12.15
2023-05-11T01:27:38.511Z,12.40
2023-05-11T01:32:45.867Z,12.77
2023-05-11T01:37:53.065Z,12.15
2023-05-11T01:43:03.346Z,11.98
2023-05-11T01:48:14.748Z,12.88
2023-05-11T01:53:20.835Z,11.57
2023-05-11T01:58:27.092Z,13.97
2023-05-11T02:03:34.714Z,14.20
2023-05-11T02:08:40.704Z,13.52
2023-05-11T02:13:47.550Z,13.60
2023-05-11T02:23:58.918Z,15.13
2023-05-11T02:29:03.005Z,13.48
2023-05-11T02:34:20.955Z,15.40
2023-05-11T02:39:33.884Z,16.25
2023-05-11T02:44:39.456Z,14.90
2023-05-11T02:49:47.119Z,15.90
2023-05-11T02:54:52.813Z,16.48
2023-05-11T02:59:57.751Z,16.58
2023-05-11T03:05:04.744Z,15.80
2023-05-11T03:15:17.458Z,16.65
2023-05-11T03:20:26.166Z,16.60
2023-05-11T03:25:30.648Z,16.80
2023-05-11T03:30:35.910Z,16.75
2023-05-11T03:35:44.518Z,16.55
2023-05-11T03:40:50.820Z,18.23
2023-05-11T03:45:56.837Z,16.33
2023-05-11T03:51:06.262Z,15.15
2023-05-11T03:56:10.578Z,17.63
2023-05-11T04:01:15.122Z,16.65
2023-05-11T04:06:21.125Z,17.13
2023-05-11T04:11:37.453Z,18.05
2023-05-11T04:16:41.634Z,17.15
2023-05-11T04:21:47.792Z,16.52
2023-05-11T04:26:57.458Z,18.23
2023-05-11T04:32:01.655Z,12.38
2023-05-11T04:37:08.224Z,17.55
2023-05-11T04:47:19.500Z,17.83
2023-05-11T04:52:25.694Z,18.52
2023-05-11T04:57:30.122Z,19.35
2023-05-11T05:02:34.884Z,22.77
2023-05-11T05:07:40.312Z,22.25
2023-05-11T05:12:44.355Z,20.90
2023-05-11T05:17:48.546Z,20.63
2023-05-11T05:22:55.316Z,18.48
2023-05-11T05:27:59.497Z,19.48
2023-05-11T05:33:05.180Z,18.63
2023-05-11T05:38:12.812Z,19.20
2023-05-11T05:43:17.024Z,19.77
2023-05-11T05:48:21.269Z,18.65
2023-05-11T05:53:27.198Z,19.15
2023-05-11T05:58:32.286Z,17.75
2023-05-11T06:03:36.813Z,17.30
2023-05-11T06:08:43.513Z,18.73
2023-05-11T06:13:47.677Z,18.42
2023-05-11T06:18:52.338Z,19.73
2023-05-11T06:23:57.913Z,17.25
2023-05-11T06:29:04.134Z,18.05
2023-05-11T06:34:09.382Z,16.80
2023-05-11T06:39:16.139Z,16.07
2023-05-11T06:44:20.628Z,14.43
2023-05-11T06:49:29.413Z,16.13
2023-05-11T06:54:35.325Z,15.77
2023-05-11T06:59:39.787Z,16.00
2023-05-11T07:04:43.843Z,16.35
2023-05-11T07:09:49.290Z,15.02
2023-05-11T07:14:53.348Z,14.35
2023-05-11T07:19:57.450Z,13.52
2023-05-11T07:25:03.277Z,11.02
2023-05-11T07:30:08.863Z,16.58
2023-05-11T07:35:12.902Z,17.58
2023-05-11T07:40:18.701Z,19.42
2023-05-11T07:45:23.113Z,20.42
2023-05-11T07:50:27.578Z,19.23
2023-05-11T07:55:33.453Z,20.52
2023-05-11T08:00:37.707Z,19.45
2023-05-11T08:05:41.744Z,19.08
2023-05-11T08:10:47.161Z,20.05
2023-05-11T08:15:51.204Z,19.67
2023-05-11T08:20:55.382Z,18.20
2023-05-11T08:26:01.178Z,20.05
2023-05-11T08:31:05.799Z,20.90
2023-05-11T08:36:11.336Z,21.00
2023-05-11T08:41:16.764Z,20.05
2023-05-11T08:46:27.161Z,19.45
2023-05-11T08:51:32.872Z,17.92
2023-05-11T08:56:39.833Z,19.10
2023-05-11T09:06:47.896Z,16.73
2023-05-11T09:11:55.377Z,17.52
2023-05-11T09:16:59.431Z,20.15
2023-05-11T09:22:03.776Z,17.98
2023-05-11T09:27:10.672Z,17.25
2023-05-11T09:32:15.447Z,18.67
2023-05-11T09:37:20.817Z,17.83
2023-05-11T09:42:26.254Z,17.38
2023-05-11T09:47:40.665Z,16.88
2023-05-11T09:52:52.628Z,14.52
2023-05-11T09:58:00.048Z,18.15
2023-05-11T10:03:07.173Z,18.98
2023-05-11T10:08:11.702Z,20.45
2023-05-11T10:13:17.912Z,17.38
2023-05-11T10:18:22.186Z,18.47
2023-05-11T10:23:27.474Z,16.30
2023-05-11T10:28:33.186Z,16.30
2023-05-11T10:33:37.890Z,14.35
2023-05-11T10:38:41.897Z,12.20
2023-05-11T10:44:34.214Z,14.10
2023-05-11T10:49:58.591Z,13.80
2023-05-11T10:55:12.910Z,13.13
2023-05-11T11:01:09.459Z,12.20
2023-05-11T11:11:37.013Z,12.40
2023-05-11T11:17:24.823Z,11.95
2023-05-11T11:22:47.240Z,12.45
2023-05-11T11:28:00.067Z,10.90
2023-05-11T11:33:34.595Z,10.90
2023-05-11T11:39:00.157Z,11.20
2023-05-11T11:44:05.335Z,9.40
2023-05-11T11:49:11.268Z,9.07
2023-05-11T11:54:38.311Z,8.70
2023-05-11T11:59:48.305Z,8.40
2023-05-11T12:04:58.862Z,8.25
2023-05-11T12:10:05.040Z,8.07
2023-05-11T12:15:10.048Z,7.87
2023-05-11T12:20:18.365Z,7.13
2023-05-11T12:25:23.649Z,5.88
2023-05-11T12:30:31.266Z,5.22
2023-05-11T12:35:38.964Z,5.88
2023-05-11T12:40:49.876Z,6.40
2023-05-11T12:45:53.984Z,5.55
2023-05-11T12:50:59.371Z,5.40
2023-05-11T12:56:04.750Z,6.00
2023-05-11T13:01:09.726Z,4.65
2023-05-11T13:06:22.014Z,6.05
2023-05-11T13:11:27.495Z,5.90
2023-05-11T13:16:33.691Z,5.88
2023-05-11T13:21:39.514Z,5.47
2023-05-11T13:26:43.554Z,6.10
2023-05-11T13:31:50.093Z,5.00
2023-05-11T13:36:55.647Z,5.40
2023-05-11T13:41:59.658Z,6.63
2023-05-11T13:47:03.819Z,5.80
2023-05-11T13:52:11.054Z,5.35
2023-05-11T13:57:15.290Z,6.05
2023-05-11T14:02:19.579Z,6.15
2023-05-11T14:07:35.587Z,9.05
2023-05-11T14:12:47.336Z,8.55
2023-05-11T14:17:51.485Z,8.73
2023-05-11T14:22:57.214Z,6.68
2023-05-11T14:28:01.191Z,7.28
2023-05-11T14:33:05.614Z,7.03
2023-05-11T14:38:11.135Z,6.78
2023-05-11T14:43:15.180Z,7.47
2023-05-11T14:48:19.214Z,6.32
2023-05-11T14:53:25.078Z,6.75
2023-05-11T14:58:29.387Z,6.38
2023-05-11T15:03:33.633Z,3.97
2023-05-11T15:08:39.109Z,2.97
2023-05-11T15:13:43.308Z,2.72
2023-05-11T15:18:47.493Z,2.60
2023-05-11T15:23:52.953Z,2.22
2023-05-11T15:28:57.085Z,1.80
2023-05-11T15:34:01.294Z,1.35
2023-05-11T15:44:12.859Z,1.13
2023-05-11T15:49:17.004Z,1.30
2023-05-11T15:54:22.408Z,1.10
2023-05-11T15:59:26.557Z,1.52
2023-05-11T16:04:30.552Z,1.20
2023-05-11T16:09:36.044Z,1.30
2023-05-11T16:14:40.182Z,1.67
2023-05-11T16:19:44.253Z,1.00
2023-05-11T16:24:49.674Z,1.50
2023-05-11T16:29:53.749Z,1.40
2023-05-11T16:34:57.839Z,1.33
2023-05-11T16:40:04.765Z,1.35
2023-05-11T16:50:14.784Z,1.73
2023-05-11T16:55:21.373Z,1.70
2023-05-11T17:00:26.569Z,1.77
2023-05-11T17:05:30.604Z,2.00
2023-05-11T17:10:36.192Z,2.08
2023-05-11T17:15:40.234Z,2.08
2023-05-11T17:20:44.228Z,5.78
2023-05-11T17:25:49.845Z,1.90
2023-05-11T17:30:54.291Z,1.52
2023-05-11T17:35:58.503Z,1.60
2023-05-11T17:41:05.959Z,2.30
2023-05-11T17:46:10.123Z,2.15
2023-05-11T17:51:14.892Z,2.53
2023-05-11T17:56:20.471Z,2.38
2023-05-11T18:01:24.828Z,2.45
2023-05-11T18:06:29.097Z,2.20
2023-05-11T18:11:34.742Z,2.58
2023-05-11T18:16:39.406Z,2.83
2023-05-11T18:21:43.425Z,3.55
2023-05-11T18:26:48.875Z,3.88
2023-05-11T18:31:53.402Z,4.07
2023-05-11T18:36:57.585Z,3.72
2023-05-11T18:42:03.282Z,4.70
2023-05-11T18:47:08.011Z,4.90
2023-05-11T18:52:12.733Z,5.88
2023-05-11T18:57:20.206Z,5.63
2023-05-11T19:02:24.797Z,4.93
2023-05-11T19:07:28.989Z,5.45
2023-05-11T19:12:34.437Z,4.93
2023-05-11T19:17:38.599Z,5.70
2023-05-11T19:22:42.873Z,4.70
2023-05-11T19:27:48.339Z,5.30
2023-05-11T19:32:52.427Z,5.68
2023-05-11T19:37:56.712Z,5.72
2023-05-11T19:43:02.181Z,5.85
2023-05-11T19:48:06.813Z,5.53
2023-05-11T19:53:11.287Z,5.60
2023-05-11T19:58:17.409Z,5.82
2023-05-11T20:03:21.850Z,5.67
2023-05-11T20:08:26.166Z,5.78
2023-05-11T20:13:31.579Z,6.07
2023-05-11T20:18:35.765Z,6.25
2023-05-11T20:23:40.402Z,6.95
2023-05-11T20:28:45.823Z,6.95
2023-05-11T20:38:56.806Z,7.00
2023-05-11T20:44:02.339Z,8.18
2023-05-11T20:49:06.630Z,7.43
2023-05-11T20:54:11.100Z,8.05
2023-05-11T21:04:23.757Z,7.82
2023-05-11T21:09:27.741Z,6.90
2023-05-11T21:14:33.379Z,7.47
2023-05-11T21:19:37.554Z,7.25
2023-05-11T21:24:42.809Z,5.90
2023-05-11T21:29:48.249Z,5.50
2023-05-11T21:34:52.442Z,5.05
2023-05-11T21:39:56.710Z,5.03
2023-05-11T21:45:02.349Z,5.18
2023-05-11T21:50:08.991Z,5.15
2023-05-11T21:55:12.995Z,5.22
2023-05-11T22:00:22.539Z,4.90
2023-05-11T22:05:27.269Z,4.78
2023-05-11T22:10:31.309Z,4.93
2023-05-11T22:15:36.851Z,5.68
2023-05-11T22:20:40.913Z,5.32
2023-05-11T22:25:44.914Z,5.10
2023-05-11T22:30:52.959Z,5.30
2023-05-11T22:35:57.480Z,5.60
2023-05-11T22:41:01.743Z,5.85
2023-05-11T22:46:07.394Z,5.65
2023-05-11T22:51:11.486Z,5.35
2023-05-11T22:56:16.615Z,6.72
2023-05-11T23:01:22.088Z,5.57
2023-05-11T23:06:26.507Z,6.43
2023-05-11T23:11:30.501Z,5.68
2023-05-11T23:16:35.933Z,5.88
2023-05-11T23:21:39.968Z,6.43
2023-05-11T23:26:43.940Z,6.15
2023-05-11T23:31:51.107Z,6.55
2023-05-11T23:36:55.257Z,6.40
2023-05-11T23:41:59.249Z,6.40
2023-05-11T23:47:04.703Z,6.82
2023-05-11T23:52:09.553Z,7.07
2023-05-11T23:57:13.581Z,6.68
